createdAt,value
2023-03-23T16:00:30.055Z,1.95
2023-03-23T16:05:33.309Z,1.60
2023-03-23T16:10:36.094Z,3.00
2023-03-23T16:15:37.631Z,3.13
2023-03-23T16:20:39.074Z,2.00
2023-03-23T16:25:40.906Z,1.90
2023-03-23T16:30:44.690Z,2.40
2023-03-23T16:35:46.403Z,2.53
2023-03-23T16:40:48.438Z,1.83
2023-03-23T16:45:50.088Z,2.13
2023-03-23T16:50:52.593Z,2.80
2023-03-23T16:55:54.165Z,1.98
2023-03-23T17:01:01.139Z,3.00
2023-03-23T17:06:02.990Z,2.42
2023-03-23T17:11:04.639Z,2.22
2023-03-23T17:16:06.724Z,2.40
2023-03-23T17:21:08.271Z,3.53
2023-03-23T17:26:09.782Z,2.90
2023-03-23T17:31:11.269Z,2.03
2023-03-23T17:36:12.820Z,3.83
2023-03-23T17:41:14.339Z,3.90
2023-03-23T17:46:15.952Z,1.90
2023-03-23T17:51:17.584Z,1.80
2023-03-23T17:56:19.097Z,2.05
2023-03-23T18:01:20.674Z,4.40
2023-03-23T18:06:22.211Z,3.78
2023-03-23T18:11:23.686Z,3.33
2023-03-23T18:16:26.291Z,3.03
2023-03-23T18:21:27.831Z,2.88
2023-03-23T18:26:30.562Z,2.45
2023-03-23T18:31:32.079Z,2.50
2023-03-23T18:36:34.198Z,2.00
2023-03-23T18:41:35.694Z,2.17
2023-03-23T18:46:37.279Z,2.42
2023-03-23T18:51:38.878Z,2.10
2023-03-23T18:56:40.440Z,2.80
2023-03-23T19:01:41.995Z,2.42
2023-03-23T19:06:43.550Z,2.40
2023-03-23T19:11:46.205Z,2.35
2023-03-23T19:16:48.051Z,2.83
2023-03-23T19:21:49.583Z,2.47
2023-03-23T19:26:51.094Z,2.40
2023-03-23T19:31:54.292Z,3.08
2023-03-23T19:37:04.096Z,2.35
2023-03-23T19:42:08.214Z,3.00
2023-03-23T19:47:10.501Z,5.00
2023-03-23T19:52:13.586Z,4.55
2023-03-23T19:57:16.673Z,4.57
2023-03-23T20:02:18.340Z,4.20
2023-03-23T20:07:21.341Z,3.70
2023-03-23T20:12:22.970Z,4.82
2023-03-23T20:17:25.538Z,4.53
2023-03-23T20:22:27.028Z,5.53
2023-03-23T20:27:28.719Z,3.88
2023-03-23T20:32:31.458Z,3.25
2023-03-23T20:37:33.705Z,2.75
2023-03-23T20:42:35.553Z,3.03
2023-03-23T20:47:38.202Z,4.65
2023-03-23T20:52:39.752Z,4.38
2023-03-23T20:57:41.279Z,4.72
2023-03-23T21:02:42.829Z,4.93
2023-03-23T21:07:44.410Z,4.72
2023-03-23T21:12:45.914Z,4.43
2023-03-23T21:17:47.462Z,3.92
2023-03-23T21:22:49.598Z,5.72
2023-03-23T21:27:51.774Z,6.00
2023-03-23T21:32:53.897Z,6.13
2023-03-23T21:37:55.396Z,5.15
2023-03-23T21:42:57.185Z,5.28
2023-03-23T21:47:58.748Z,3.10
2023-03-23T21:53:00.350Z,3.13
2023-03-23T21:58:02.092Z,4.60
2023-03-23T22:03:03.974Z,6.28
2023-03-23T22:08:05.514Z,3.13
2023-03-23T22:13:07.470Z,4.00
2023-03-23T22:18:09.028Z,4.00
2023-03-23T22:23:11.205Z,4.72
2023-03-23T22:28:12.756Z,4.22
2023-03-23T22:33:14.376Z,4.95
2023-03-23T22:38:16.322Z,4.45
2023-03-23T22:43:17.827Z,3.63
2023-03-23T22:48:20.787Z,3.70
2023-03-23T22:53:22.481Z,3.95
2023-03-23T22:58:26.020Z,4.20
2023-03-23T23:03:28.543Z,4.05
2023-03-23T23:08:30.261Z,4.07
2023-03-23T23:13:33.220Z,3.80
2023-03-23T23:18:35.839Z,4.60
2023-03-23T23:23:37.545Z,3.97
2023-03-23T23:28:38.982Z,3.60
2023-03-23T23:33:40.599Z,2.90
2023-03-23T23:38:42.108Z,3.85
2023-03-23T23:43:43.589Z,3.83
2023-03-23T23:48:45.096Z,3.05
2023-03-23T23:53:47.027Z,3.72
2023-03-23T23:58:48.490Z,3.33
